sensor_id;sensor_type;location;lat;lon;timestamp;pressure;altitude;pressure_sealevel;temperature
69007;BMP180;56061;51.748;19.620;2022-10-16T02:13:45;99008.00;;;11.80
69007;BMP180;56061;51.748;19.620;2022-10-16T02:16:14;99006.00;;;11.80
69007;BMP180;56061;51.748;19.620;2022-10-16T02:18:43;99010.60;;;11.80
69007;BMP180;56061;51.748;19.620;2022-10-16T02:21:25;99011.00;;;11.80
69007;BMP180;56061;51.748;19.620;2022-10-16T02:24:11;99016.20;;;11.70
69007;BMP180;56061;51.748;19.620;2022-10-16T02:27:06;99015.80;;;11.70
69007;BMP180;56061;51.748;19.620;2022-10-16T02:29:41;99018.20;;;11.70
69007;BMP180;56061;51.748;19.620;2022-10-16T02:32:20;99020.80;;;11.70
69007;BMP180;56061;51.748;19.620;2022-10-16T02:34:49;99025.60;;;11.70
69007;BMP180;56061;51.748;19.620;2022-10-16T02:37:18;99024.40;;;11.70
69007;BMP180;56061;51.748;19.620;2022-10-16T02:39:45;99024.00;;;11.70
69007;BMP180;56061;51.748;19.620;2022-10-16T02:42:13;99024.00;;;11.60
69007;BMP180;56061;51.748;19.620;2022-10-16T02:44:40;99023.00;;;11.60
69007;BMP180;56061;51.748;19.620;2022-10-16T02:47:06;99025.40;;;11.60
69007;BMP180;56061;51.748;19.620;2022-10-16T02:49:33;99027.00;;;11.60
69007;BMP180;56061;51.748;19.620;2022-10-16T02:51:59;99025.20;;;11.60
69007;BMP180;56061;51.748;19.620;2022-10-16T02:54:26;99024.40;;;11.50
69007;BMP180;56061;51.748;19.620;2022-10-16T02:56:52;99029.80;;;11.48
69007;BMP180;56061;51.748;19.620;2022-10-16T02:59:19;99032.80;;;11.44
69007;BMP180;56061;51.748;19.620;2022-10-16T03:01:45;99034.00;;;11.40
69007;BMP180;56061;51.748;19.620;2022-10-16T03:04:12;99031.80;;;11.40
69007;BMP180;56061;51.748;19.620;2022-10-16T03:06:38;99030.40;;;11.40
69007;BMP180;56061;51.748;19.620;2022-10-16T03:09:04;99029.40;;;11.40
69007;BMP180;56061;51.748;19.620;2022-10-16T03:11:31;99032.80;;;11.38
69007;BMP180;56061;51.748;19.620;2022-10-16T03:13:57;99035.80;;;11.30
69007;BMP180;56061;51.748;19.620;2022-10-16T03:16:24;99038.60;;;11.30
69007;BMP180;56061;51.748;19.620;2022-10-16T03:18:50;99046.00;;;11.26
69007;BMP180;56061;51.748;19.620;2022-10-16T03:21:17;99050.60;;;11.10
69007;BMP180;56061;51.748;19.620;2022-10-16T03:23:43;99055.80;;;11.02
69007;BMP180;56061;51.748;19.620;2022-10-16T03:26:10;99056.80;;;11.00
69007;BMP180;56061;51.748;19.620;2022-10-16T03:28:36;99061.20;;;11.10
69007;BMP180;56061;51.748;19.620;2022-10-16T03:31:02;99063.20;;;11.18
69007;BMP180;56061;51.748;19.620;2022-10-16T03:33:29;99061.80;;;11.20
69007;BMP180;56061;51.748;19.620;2022-10-16T03:35:55;99060.20;;;11.30
69007;BMP180;56061;51.748;19.620;2022-10-16T03:38:22;99065.20;;;11.38
69007;BMP180;56061;51.748;19.620;2022-10-16T03:40:48;99067.60;;;11.40
69007;BMP180;56061;51.748;19.620;2022-10-16T03:43:15;99065.00;;;11.40
69007;BMP180;56061;51.748;19.620;2022-10-16T03:45:42;99061.60;;;11.40
69007;BMP180;56061;51.748;19.620;2022-10-16T03:48:09;99066.80;;;11.40
69007;BMP180;56061;51.748;19.620;2022-10-16T03:50:35;99064.20;;;11.50
69007;BMP180;56061;51.748;19.620;2022-10-16T03:53:02;99062.20;;;11.50
69007;BMP180;56061;51.748;19.620;2022-10-16T03:55:28;99063.60;;;11.52
69007;BMP180;56061;51.748;19.620;2022-10-16T03:57:55;99066.80;;;11.60
69007;BMP180;56061;51.748;19.620;2022-10-16T04:00:21;99059.20;;;11.60
69007;BMP180;56061;51.748;19.620;2022-10-16T04:02:48;99056.00;;;11.60
69007;BMP180;56061;51.748;19.620;2022-10-16T04:05:15;99054.00;;;11.60
69007;BMP180;56061;51.748;19.620;2022-10-16T04:07:41;99051.60;;;11.60
69007;BMP180;56061;51.748;19.620;2022-10-16T04:10:08;99050.80;;;11.60
69007;BMP180;56061;51.748;19.620;2022-10-16T04:12:34;99048.40;;;11.70
69007;BMP180;56061;51.748;19.620;2022-10-16T04:15:01;99048.40;;;11.70
69007;BMP180;56061;51.748;19.620;2022-10-16T04:17:27;99048.60;;;11.78
69007;BMP180;56061;51.748;19.620;2022-10-16T04:19:54;99057.40;;;11.80
69007;BMP180;56061;51.748;19.620;2022-10-16T04:22:21;99057.20;;;11.90
69007;BMP180;56061;51.748;19.620;2022-10-16T04:24:47;99055.40;;;11.90
69007;BMP180;56061;51.748;19.620;2022-10-16T04:27:14;99055.20;;;11.90
69007;BMP180;56061;51.748;19.620;2022-10-16T04:29:40;99066.80;;;11.80
69007;BMP180;56061;51.748;19.620;2022-10-16T04:32:09;99071.60;;;11.70
69007;BMP180;56061;51.748;19.620;2022-10-16T04:34:35;99078.20;;;11.70
69007;BMP180;56061;51.748;19.620;2022-10-16T04:37:02;99084.40;;;11.80
69007;BMP180;56061;51.748;19.620;2022-10-16T04:39:28;99079.20;;;11.90
69007;BMP180;56061;51.748;19.620;2022-10-16T04:41:55;99080.00;;;11.90
69007;BMP180;56061;51.748;19.620;2022-10-16T04:44:21;99080.60;;;11.90
69007;BMP180;56061;51.748;19.620;2022-10-16T04:46:50;99089.00;;;12.00
69007;BMP180;56061;51.748;19.620;2022-10-16T04:49:17;99088.00;;;12.00
69007;BMP180;56061;51.748;19.620;2022-10-16T04:51:43;99090.20;;;12.10
69007;BMP180;56061;51.748;19.620;2022-10-16T04:54:10;99093.20;;;12.20
69007;BMP180;56061;51.748;19.620;2022-10-16T04:56:36;99093.40;;;12.20
69007;BMP180;56061;51.748;19.620;2022-10-16T04:59:09;99093.00;;;12.30
69007;BMP180;56061;51.748;19.620;2022-10-16T05:01:36;99091.60;;;12.40
69007;BMP180;56061;51.748;19.620;2022-10-16T05:04:02;99092.80;;;12.50
69007;BMP180;56061;51.748;19.620;2022-10-16T05:06:28;99098.40;;;12.50
69007;BMP180;56061;51.748;19.620;2022-10-16T05:08:55;99093.40;;;12.54
69007;BMP180;56061;51.748;19.620;2022-10-16T05:11:21;99091.80;;;12.50
69007;BMP180;56061;51.748;19.620;2022-10-16T05:13:48;99089.40;;;12.50
69007;BMP180;56061;51.748;19.620;2022-10-16T05:16:18;99083.40;;;12.56
69007;BMP180;56061;51.748;19.620;2022-10-16T05:18:45;99076.60;;;12.60
69007;BMP180;56061;51.748;19.620;2022-10-16T05:21:11;99077.00;;;12.60
69007;BMP180;56061;51.748;19.620;2022-10-16T05:23:38;99075.60;;;12.70
69007;BMP180;56061;51.748;19.620;2022-10-16T05:26:04;99077.80;;;12.80
69007;BMP180;56061;51.748;19.620;2022-10-16T05:28:31;99078.00;;;12.88
69007;BMP180;56061;51.748;19.620;2022-10-16T05:30:58;99080.60;;;12.90
69007;BMP180;56061;51.748;19.620;2022-10-16T05:33:26;99077.20;;;13.00
69007;BMP180;56061;51.748;19.620;2022-10-16T05:35:52;99072.80;;;13.00
69007;BMP180;56061;51.748;19.620;2022-10-16T05:38:18;99083.80;;;13.10
69007;BMP180;56061;51.748;19.620;2022-10-16T05:40:52;99094.40;;;13.10
69007;BMP180;56061;51.748;19.620;2022-10-16T05:43:20;99096.20;;;13.20
69007;BMP180;56061;51.748;19.620;2022-10-16T05:46:01;99097.40;;;13.20
69007;BMP180;56061;51.748;19.620;2022-10-16T05:48:28;99099.80;;;13.24
69007;BMP180;56061;51.748;19.620;2022-10-16T05:51:02;99101.20;;;13.30
69007;BMP180;56061;51.748;19.620;2022-10-16T05:53:31;99101.40;;;13.30
69007;BMP180;56061;51.748;19.620;2022-10-16T05:55:59;99106.40;;;13.30
69007;BMP180;56061;51.748;19.620;2022-10-16T05:58:35;99100.20;;;13.26
69007;BMP180;56061;51.748;19.620;2022-10-16T06:01:05;99099.40;;;13.30
69007;BMP180;56061;51.748;19.620;2022-10-16T06:03:33;99101.00;;;13.32
69007;BMP180;56061;51.748;19.620;2022-10-16T06:06:18;99105.20;;;13.30
69007;BMP180;56061;51.748;19.620;2022-10-16T06:08:47;99111.80;;;13.30
69007;BMP180;56061;51.748;19.620;2022-10-16T06:11:24;99112.60;;;13.20
69007;BMP180;56061;51.748;19.620;2022-10-16T06:13:53;99115.00;;;13.20
69007;BMP180;56061;51.748;19.620;2022-10-16T06:16:20;99115.00;;;13.30
69007;BMP180;56061;51.748;19.620;2022-10-16T06:18:47;99120.60;;;13.40
69007;BMP180;56061;51.748;19.620;2022-10-16T06:21:21;99122.60;;;13.44
69007;BMP180;56061;51.748;19.620;2022-10-16T06:23:48;99130.40;;;13.50
69007;BMP180;56061;51.748;19.620;2022-10-16T06:26:19;99130.40;;;13.50
69007;BMP180;56061;51.748;19.620;2022-10-16T06:28:47;99128.40;;;13.60
69007;BMP180;56061;51.748;19.620;2022-10-16T06:31:14;99137.20;;;13.50
69007;BMP180;56061;51.748;19.620;2022-10-16T06:33:41;99135.60;;;13.48
69007;BMP180;56061;51.748;19.620;2022-10-16T06:36:13;99141.00;;;13.50
69007;BMP180;56061;51.748;19.620;2022-10-16T06:38:41;99148.60;;;13.70
69007;BMP180;56061;51.748;19.620;2022-10-16T06:41:16;99144.80;;;13.78
69007;BMP180;56061;51.748;19.620;2022-10-16T06:43:43;99156.20;;;13.90
69007;BMP180;56061;51.748;19.620;2022-10-16T06:46:18;99153.40;;;14.00
69007;BMP180;56061;51.748;19.620;2022-10-16T06:48:45;99156.00;;;14.00
69007;BMP180;56061;51.748;19.620;2022-10-16T06:51:23;99154.20;;;14.10
69007;BMP180;56061;51.748;19.620;2022-10-16T06:53:53;99164.60;;;14.20
69007;BMP180;56061;51.748;19.620;2022-10-16T06:56:30;99160.20;;;14.30
69007;BMP180;56061;51.748;19.620;2022-10-16T06:58:58;99155.60;;;14.30
69007;BMP180;56061;51.748;19.620;2022-10-16T07:01:26;99160.60;;;14.40
69007;BMP180;56061;51.748;19.620;2022-10-16T07:03:53;99161.80;;;14.40
69007;BMP180;56061;51.748;19.620;2022-10-16T07:06:23;99171.20;;;14.50
69007;BMP180;56061;51.748;19.620;2022-10-16T07:08:50;99175.00;;;14.50
69007;BMP180;56061;51.748;19.620;2022-10-16T07:11:21;99183.80;;;14.60
69007;BMP180;56061;51.748;19.620;2022-10-16T07:13:50;99186.60;;;14.70
69007;BMP180;56061;51.748;19.620;2022-10-16T07:16:25;99187.00;;;14.70
69007;BMP180;56061;51.748;19.620;2022-10-16T07:18:54;99185.20;;;14.80
69007;BMP180;56061;51.748;19.620;2022-10-16T07:21:29;99188.40;;;14.80
69007;BMP180;56061;51.748;19.620;2022-10-16T07:23:59;99192.40;;;14.90
69007;BMP180;56061;51.748;19.620;2022-10-16T07:26:30;99194.60;;;14.92
69007;BMP180;56061;51.748;19.620;2022-10-16T07:28:57;99191.20;;;14.92
69007;BMP180;56061;51.748;19.620;2022-10-16T07:31:24;99185.20;;;15.00
69007;BMP180;56061;51.748;19.620;2022-10-16T07:33:51;99180.60;;;15.04
69007;BMP180;56061;51.748;19.620;2022-10-16T07:36:20;99172.80;;;15.12
69007;BMP180;56061;51.748;19.620;2022-10-16T07:38:47;99165.60;;;15.30
69007;BMP180;56061;51.748;19.620;2022-10-16T07:41:17;99160.80;;;15.30
69007;BMP180;56061;51.748;19.620;2022-10-16T07:43:50;99165.40;;;15.42
69007;BMP180;56061;51.748;19.620;2022-10-16T07:46:18;99161.80;;;15.60
69007;BMP180;56061;51.748;19.620;2022-10-16T07:48:45;99163.60;;;15.80
69007;BMP180;56061;51.748;19.620;2022-10-16T07:51:17;99170.00;;;15.94
69007;BMP180;56061;51.748;19.620;2022-10-16T07:53:44;99173.80;;;16.08
69007;BMP180;56061;51.748;19.620;2022-10-16T07:56:11;99172.80;;;16.20
69007;BMP180;56061;51.748;19.620;2022-10-16T07:58:38;99172.00;;;16.40
69007;BMP180;56061;51.748;19.620;2022-10-16T08:01:10;99175.20;;;16.60
69007;BMP180;56061;51.748;19.620;2022-10-16T08:03:37;99180.00;;;16.80
69007;BMP180;56061;51.748;19.620;2022-10-16T08:06:04;99186.80;;;16.92
69007;BMP180;56061;51.748;19.620;2022-10-16T08:08:31;99199.00;;;17.10
69007;BMP180;56061;51.748;19.620;2022-10-16T08:10:58;99200.40;;;17.10
69007;BMP180;56061;51.748;19.620;2022-10-16T08:13:25;99201.40;;;17.20
69007;BMP180;56061;51.748;19.620;2022-10-16T08:15:54;99201.80;;;17.30
69007;BMP180;56061;51.748;19.620;2022-10-16T08:18:21;99204.00;;;17.40
69007;BMP180;56061;51.748;19.620;2022-10-16T08:20:55;99198.20;;;17.50
69007;BMP180;56061;51.748;19.620;2022-10-16T08:23:23;99195.20;;;17.58
69007;BMP180;56061;51.748;19.620;2022-10-16T08:26:01;99198.00;;;17.60
69007;BMP180;56061;51.748;19.620;2022-10-16T08:28:27;99199.80;;;17.70
69007;BMP180;56061;51.748;19.620;2022-10-16T08:30:54;99204.80;;;17.80
69007;BMP180;56061;51.748;19.620;2022-10-16T08:33:22;99214.60;;;17.90
69007;BMP180;56061;51.748;19.620;2022-10-16T08:35:52;99218.80;;;17.90
69007;BMP180;56061;51.748;19.620;2022-10-16T08:38:20;99217.00;;;18.10
69007;BMP180;56061;51.748;19.620;2022-10-16T08:40:47;99218.20;;;18.20
69007;BMP180;56061;51.748;19.620;2022-10-16T08:43:31;99221.00;;;18.34
69007;BMP180;56061;51.748;19.620;2022-10-16T08:48:51;99225.40;;;18.50
69007;BMP180;56061;51.748;19.620;2022-10-16T08:51:29;99226.00;;;18.48
69007;BMP180;56061;51.748;19.620;2022-10-16T08:53:59;99231.00;;;18.46
69007;BMP180;56061;51.748;19.620;2022-10-16T08:56:28;99232.20;;;18.50
69007;BMP180;56061;51.748;19.620;2022-10-16T08:58:54;99228.20;;;18.50
69007;BMP180;56061;51.748;19.620;2022-10-16T09:01:45;99225.20;;;18.60
69007;BMP180;56061;51.748;19.620;2022-10-16T09:07:41;99228.40;;;18.70
69007;BMP180;56061;51.748;19.620;2022-10-16T09:13:09;99216.00;;;18.80
69007;BMP180;56061;51.748;19.620;2022-10-16T09:18:34;99210.20;;;19.00
69007;BMP180;56061;51.748;19.620;2022-10-16T09:21:30;99209.60;;;19.10
69007;BMP180;56061;51.748;19.620;2022-10-16T09:24:10;99209.20;;;19.20
69007;BMP180;56061;51.748;19.620;2022-10-16T09:26:39;99204.80;;;19.20
69007;BMP180;56061;51.748;19.620;2022-10-16T09:29:05;99203.00;;;19.14
69007;BMP180;56061;51.748;19.620;2022-10-16T09:31:36;99209.80;;;19.20
69007;BMP180;56061;51.748;19.620;2022-10-16T09:34:04;99219.80;;;19.40
69007;BMP180;56061;51.748;19.620;2022-10-16T09:36:40;99221.60;;;19.50
69007;BMP180;56061;51.748;19.620;2022-10-16T09:39:12;99219.20;;;19.60
69007;BMP180;56061;51.748;19.620;2022-10-16T09:41:42;99218.00;;;19.60
69007;BMP180;56061;51.748;19.620;2022-10-16T09:44:27;99213.00;;;19.50
69007;BMP180;56061;51.748;19.620;2022-10-16T09:47:17;99210.40;;;19.60
69007;BMP180;56061;51.748;19.620;2022-10-16T09:49:58;99212.20;;;19.60
69007;BMP180;56061;51.748;19.620;2022-10-16T09:52:29;99220.20;;;19.70
69007;BMP180;56061;51.748;19.620;2022-10-16T09:55:15;99222.60;;;19.70
69007;BMP180;56061;51.748;19.620;2022-10-16T09:57:54;99223.00;;;19.70
69007;BMP180;56061;51.748;19.620;2022-10-16T10:00:23;99223.80;;;19.70
69007;BMP180;56061;51.748;19.620;2022-10-16T10:02:51;99227.00;;;19.80
69007;BMP180;56061;51.748;19.620;2022-10-16T10:05:29;99231.00;;;19.70
69007;BMP180;56061;51.748;19.620;2022-10-16T10:08:02;99225.00;;;19.70
69007;BMP180;56061;51.748;19.620;2022-10-16T10:10:41;99225.60;;;19.60
69007;BMP180;56061;51.748;19.620;2022-10-16T10:13:22;99229.80;;;19.70
69007;BMP180;56061;51.748;19.620;2022-10-16T10:15:51;99235.40;;;19.70
69007;BMP180;56061;51.748;19.620;2022-10-16T10:18:20;99238.40;;;19.62
69007;BMP180;56061;51.748;19.620;2022-10-16T10:21:03;99233.00;;;19.70
69007;BMP180;56061;51.748;19.620;2022-10-16T10:23:31;99234.60;;;19.80
69007;BMP180;56061;51.748;19.620;2022-10-16T10:26:24;99227.00;;;19.70
69007;BMP180;56061;51.748;19.620;2022-10-16T10:29:19;99229.00;;;19.70
69007;BMP180;56061;51.748;19.620;2022-10-16T10:32:09;99227.60;;;19.76
69007;BMP180;56061;51.748;19.620;2022-10-16T10:35:03;99228.40;;;19.80
69007;BMP180;56061;51.748;19.620;2022-10-16T10:37:36;99231.80;;;19.90
69007;BMP180;56061;51.748;19.620;2022-10-16T10:46:35;99229.00;;;20.10
69007;BMP180;56061;51.748;19.620;2022-10-16T10:49:29;99230.40;;;20.20
69007;BMP180;56061;51.748;19.620;2022-10-16T10:52:58;99225.40;;;20.20
69007;BMP180;56061;51.748;19.620;2022-10-16T11:07:05;99226.20;;;20.20
69007;BMP180;56061;51.748;19.620;2022-10-16T11:10:14;99221.00;;;20.28
69007;BMP180;56061;51.748;19.620;2022-10-16T11:12:51;99215.60;;;20.30
69007;BMP180;56061;51.748;19.620;2022-10-16T11:15:30;99218.60;;;20.30
69007;BMP180;56061;51.748;19.620;2022-10-16T11:18:06;99220.80;;;20.30
69007;BMP180;56061;51.748;19.620;2022-10-16T11:20:54;99216.80;;;20.30
69007;BMP180;56061;51.748;19.620;2022-10-16T11:26:20;99207.60;;;20.30
69007;BMP180;56061;51.748;19.620;2022-10-16T11:28:52;99210.60;;;20.30
69007;BMP180;56061;51.748;19.620;2022-10-16T11:31:57;99214.40;;;20.40
69007;BMP180;56061;51.748;19.620;2022-10-16T11:34:32;99214.60;;;20.40
69007;BMP180;56061;51.748;19.620;2022-10-16T11:37:17;99215.80;;;20.58
69007;BMP180;56061;51.748;19.620;2022-10-16T11:39:45;99213.60;;;20.74
69007;BMP180;56061;51.748;19.620;2022-10-16T11:42:27;99212.40;;;20.90
69007;BMP180;56061;51.748;19.620;2022-10-16T11:45:29;99210.40;;;21.00
69007;BMP180;56061;51.748;19.620;2022-10-16T11:48:15;99202.20;;;21.10
69007;BMP180;56061;51.748;19.620;2022-10-16T11:50:53;99210.40;;;21.20
69007;BMP180;56061;51.748;19.620;2022-10-16T11:53:56;99215.60;;;21.34
69007;BMP180;56061;51.748;19.620;2022-10-16T11:56:25;99215.40;;;21.50
69007;BMP180;56061;51.748;19.620;2022-10-16T11:59:05;99214.00;;;21.50
69007;BMP180;56061;51.748;19.620;2022-10-16T12:07:06;99224.80;;;21.50
69007;BMP180;56061;51.748;19.620;2022-10-16T12:09:39;99226.20;;;21.40
69007;BMP180;56061;51.748;19.620;2022-10-16T12:12:39;99230.80;;;21.40
69007;BMP180;56061;51.748;19.620;2022-10-16T12:17:53;99235.20;;;21.32
69007;BMP180;56061;51.748;19.620;2022-10-16T12:20:30;99232.60;;;21.22
69007;BMP180;56061;51.748;19.620;2022-10-16T12:23:05;99234.80;;;21.20
69007;BMP180;56061;51.748;19.620;2022-10-16T12:25:39;99239.20;;;21.14
69007;BMP180;56061;51.748;19.620;2022-10-16T12:30:41;99242.20;;;21.00
69007;BMP180;56061;51.748;19.620;2022-10-16T12:33:41;99240.40;;;21.00
69007;BMP180;56061;51.748;19.620;2022-10-16T12:36:16;99239.80;;;21.00
69007;BMP180;56061;51.748;19.620;2022-10-16T12:38:53;99239.80;;;21.10
69007;BMP180;56061;51.748;19.620;2022-10-16T12:43:51;99240.00;;;21.02
69007;BMP180;56061;51.748;19.620;2022-10-16T12:48:44;99237.40;;;20.90
69007;BMP180;56061;51.748;19.620;2022-10-16T12:54:04;99239.00;;;21.00
69007;BMP180;56061;51.748;19.620;2022-10-16T12:56:54;99243.60;;;21.02
69007;BMP180;56061;51.748;19.620;2022-10-16T13:02:47;99239.60;;;21.10
69007;BMP180;56061;51.748;19.620;2022-10-16T13:05:26;99243.40;;;21.10
69007;BMP180;56061;51.748;19.620;2022-10-16T13:08:52;99249.20;;;21.00
69007;BMP180;56061;51.748;19.620;2022-10-16T13:11:41;99249.00;;;21.00
69007;BMP180;56061;51.748;19.620;2022-10-16T13:23:42;99252.20;;;21.10
69007;BMP180;56061;51.748;19.620;2022-10-16T13:26:40;99249.40;;;21.20
69007;BMP180;56061;51.748;19.620;2022-10-16T13:29:07;99241.00;;;21.20
69007;BMP180;56061;51.748;19.620;2022-10-16T13:31:38;99242.40;;;21.20
69007;BMP180;56061;51.748;19.620;2022-10-16T13:34:15;99244.40;;;21.08
69007;BMP180;56061;51.748;19.620;2022-10-16T13:36:48;99250.80;;;21.00
69007;BMP180;56061;51.748;19.620;2022-10-16T13:39:28;99252.20;;;20.90
69007;BMP180;56061;51.748;19.620;2022-10-16T13:42:07;99262.60;;;20.80
69007;BMP180;56061;51.748;19.620;2022-10-16T13:44:46;99261.00;;;20.70
69007;BMP180;56061;51.748;19.620;2022-10-16T13:47:25;99258.20;;;20.60
69007;BMP180;56061;51.748;19.620;2022-10-16T13:50:12;99258.00;;;20.60
69007;BMP180;56061;51.748;19.620;2022-10-16T13:52:39;99257.40;;;20.66
69007;BMP180;56061;51.748;19.620;2022-10-16T13:55:15;99262.00;;;20.70
69007;BMP180;56061;51.748;19.620;2022-10-16T13:57:44;99266.60;;;20.70
69007;BMP180;56061;51.748;19.620;2022-10-16T14:00:37;99269.60;;;20.60
69007;BMP180;56061;51.748;19.620;2022-10-16T14:03:14;99271.60;;;20.60
69007;BMP180;56061;51.748;19.620;2022-10-16T14:05:57;99278.80;;;20.54
69007;BMP180;56061;51.748;19.620;2022-10-16T14:08:26;99284.00;;;20.50
69007;BMP180;56061;51.748;19.620;2022-10-16T14:10:59;99289.60;;;20.40
69007;BMP180;56061;51.748;19.620;2022-10-16T14:13:46;99288.60;;;20.30
69007;BMP180;56061;51.748;19.620;2022-10-16T14:16:40;99297.00;;;20.22
69007;BMP180;56061;51.748;19.620;2022-10-16T14:19:29;99295.00;;;20.10
69007;BMP180;56061;51.748;19.620;2022-10-16T14:21:58;99297.00;;;20.00
69007;BMP180;56061;51.748;19.620;2022-10-16T14:24:34;99305.60;;;19.90
69007;BMP180;56061;51.748;19.620;2022-10-16T14:27:02;99309.80;;;19.80
69007;BMP180;56061;51.748;19.620;2022-10-16T14:29:29;99312.60;;;19.80
69007;BMP180;56061;51.748;19.620;2022-10-16T14:32:05;99314.60;;;19.80
69007;BMP180;56061;51.748;19.620;2022-10-16T14:34:41;99311.80;;;19.80
69007;BMP180;56061;51.748;19.620;2022-10-16T14:37:24;99321.40;;;19.80
69007;BMP180;56061;51.748;19.620;2022-10-16T14:39:55;99319.80;;;19.70
69007;BMP180;56061;51.748;19.620;2022-10-16T14:42:24;99321.00;;;19.70
69007;BMP180;56061;51.748;19.620;2022-10-16T14:44:54;99326.00;;;19.60
69007;BMP180;56061;51.748;19.620;2022-10-16T14:47:25;99325.60;;;19.60
69007;BMP180;56061;51.748;19.620;2022-10-16T14:49:54;99329.20;;;19.60
69007;BMP180;56061;51.748;19.620;2022-10-16T14:52:22;99329.60;;;19.50
69007;BMP180;56061;51.748;19.620;2022-10-16T14:54:50;99332.00;;;19.50
69007;BMP180;56061;51.748;19.620;2022-10-16T14:57:20;99340.40;;;19.42
69007;BMP180;56061;51.748;19.620;2022-10-16T14:59:48;99337.20;;;19.42
69007;BMP180;56061;51.748;19.620;2022-10-16T15:02:31;99341.20;;;19.40
69007;BMP180;56061;51.748;19.620;2022-10-16T15:07:42;99353.60;;;19.40
69007;BMP180;56061;51.748;19.620;2022-10-16T15:10:09;99351.80;;;19.40
69007;BMP180;56061;51.748;19.620;2022-10-16T15:12:36;99353.20;;;19.32
69007;BMP180;56061;51.748;19.620;2022-10-16T15:17:56;99358.60;;;19.20
69007;BMP180;56061;51.748;19.620;2022-10-16T15:20:25;99355.40;;;19.12
69007;BMP180;56061;51.748;19.620;2022-10-16T15:22:52;99355.60;;;19.02
69007;BMP180;56061;51.748;19.620;2022-10-16T15:25:41;99365.20;;;18.98
69007;BMP180;56061;51.748;19.620;2022-10-16T15:28:09;99367.20;;;18.80
69007;BMP180;56061;51.748;19.620;2022-10-16T15:30:38;99360.80;;;18.80
69007;BMP180;56061;51.748;19.620;2022-10-16T15:33:31;99363.40;;;18.72
69007;BMP180;56061;51.748;19.620;2022-10-16T15:36:06;99362.00;;;18.70
69007;BMP180;56061;51.748;19.620;2022-10-16T15:38:33;99367.80;;;18.60
69007;BMP180;56061;51.748;19.620;2022-10-16T15:41:00;99370.20;;;18.40
69007;BMP180;56061;51.748;19.620;2022-10-16T15:43:27;99372.60;;;18.30
69007;BMP180;56061;51.748;19.620;2022-10-16T15:46:03;99369.80;;;18.30
69007;BMP180;56061;51.748;19.620;2022-10-16T15:48:30;99375.80;;;18.26
69007;BMP180;56061;51.748;19.620;2022-10-16T15:50:57;99370.60;;;18.20
69007;BMP180;56061;51.748;19.620;2022-10-16T15:53:24;99376.40;;;18.10
69007;BMP180;56061;51.748;19.620;2022-10-16T15:55:50;99375.00;;;18.10
69007;BMP180;56061;51.748;19.620;2022-10-16T15:58:17;99379.80;;;18.08
69007;BMP180;56061;51.748;19.620;2022-10-16T16:00:44;99381.20;;;18.00
69007;BMP180;56061;51.748;19.620;2022-10-16T16:03:10;99382.60;;;17.90
69007;BMP180;56061;51.748;19.620;2022-10-16T16:05:38;99390.60;;;17.90
69007;BMP180;56061;51.748;19.620;2022-10-16T16:08:11;99384.60;;;17.80
69007;BMP180;56061;51.748;19.620;2022-10-16T16:10:38;99384.80;;;17.74
69007;BMP180;56061;51.748;19.620;2022-10-16T16:13:04;99389.60;;;17.70
69007;BMP180;56061;51.748;19.620;2022-10-16T16:15:31;99394.40;;;17.60
69007;BMP180;56061;51.748;19.620;2022-10-16T16:17:57;99400.60;;;17.60
69007;BMP180;56061;51.748;19.620;2022-10-16T16:20:24;99401.60;;;17.50
69007;BMP180;56061;51.748;19.620;2022-10-16T16:22:50;99403.00;;;17.40
69007;BMP180;56061;51.748;19.620;2022-10-16T16:25:17;99410.20;;;17.34
69007;BMP180;56061;51.748;19.620;2022-10-16T16:27:43;99407.20;;;17.30
69007;BMP180;56061;51.748;19.620;2022-10-16T16:30:11;99407.80;;;17.20
69007;BMP180;56061;51.748;19.620;2022-10-16T16:32:44;99415.80;;;17.20
69007;BMP180;56061;51.748;19.620;2022-10-16T16:35:11;99415.00;;;17.10
69007;BMP180;56061;51.748;19.620;2022-10-16T16:37:37;99420.80;;;17.08
69007;BMP180;56061;51.748;19.620;2022-10-16T16:40:04;99431.20;;;17.02
69007;BMP180;56061;51.748;19.620;2022-10-16T16:42:31;99432.40;;;17.00
69007;BMP180;56061;51.748;19.620;2022-10-16T16:44:58;99438.60;;;17.00
69007;BMP180;56061;51.748;19.620;2022-10-16T16:47:24;99439.80;;;16.94
69007;BMP180;56061;51.748;19.620;2022-10-16T16:49:51;99436.20;;;16.90
69007;BMP180;56061;51.748;19.620;2022-10-16T16:52:18;99440.00;;;16.90
69007;BMP180;56061;51.748;19.620;2022-10-16T16:54:44;99440.40;;;16.80
69007;BMP180;56061;51.748;19.620;2022-10-16T16:57:19;99443.20;;;16.80
69007;BMP180;56061;51.748;19.620;2022-10-16T16:59:46;99444.40;;;16.80
69007;BMP180;56061;51.748;19.620;2022-10-16T17:02:13;99444.20;;;16.80
69007;BMP180;56061;51.748;19.620;2022-10-16T17:04:39;99446.60;;;16.76
69007;BMP180;56061;51.748;19.620;2022-10-16T17:07:06;99451.60;;;16.70
69007;BMP180;56061;51.748;19.620;2022-10-16T17:09:32;99457.00;;;16.70
69007;BMP180;56061;51.748;19.620;2022-10-16T17:11:59;99466.80;;;16.70
69007;BMP180;56061;51.748;19.620;2022-10-16T17:14:26;99471.20;;;16.70
69007;BMP180;56061;51.748;19.620;2022-10-16T17:16:52;99467.60;;;16.64
69007;BMP180;56061;51.748;19.620;2022-10-16T17:19:19;99476.20;;;16.64
69007;BMP180;56061;51.748;19.620;2022-10-16T17:21:50;99481.00;;;16.60
69007;BMP180;56061;51.748;19.620;2022-10-16T17:24:18;99478.00;;;16.60
69007;BMP180;56061;51.748;19.620;2022-10-16T17:26:47;99485.80;;;16.60
69007;BMP180;56061;51.748;19.620;2022-10-16T17:29:15;99487.00;;;16.60
69007;BMP180;56061;51.748;19.620;2022-10-16T17:31:44;99494.40;;;16.50
69007;BMP180;56061;51.748;19.620;2022-10-16T17:34:11;99496.00;;;16.40
69007;BMP180;56061;51.748;19.620;2022-10-16T17:36:39;99500.00;;;16.38
69007;BMP180;56061;51.748;19.620;2022-10-16T17:39:13;99504.60;;;16.30
69007;BMP180;56061;51.748;19.620;2022-10-16T17:41:39;99509.00;;;16.20
69007;BMP180;56061;51.748;19.620;2022-10-16T17:44:06;99508.20;;;16.16
69007;BMP180;56061;51.748;19.620;2022-10-16T17:46:34;99511.60;;;16.10